Time;durP1;ratioP1;P1;durP2;ratioP2;P2;SDS_P1;SDS_P2;PMS_P1;PMS_P2;Temp;Humidity;BMP_temperature;BMP_pressure;BME280_temperature;BME280_humidity;BME280_pressure;Samples;Min_cycle;Max_cycle;Signal;HPM_P1;HPM_P2
2023/06/05 03:00:46;;;;;;;21.80;9.55;;;11.00;99.90;;;;;;5782798;23;20493;-72
2023/06/05 03:03:12;;;;;;;17.15;9.73;;;11.10;99.90;;;;;;4975380;28;20047;-75
2023/06/05 03:05:40;;;;;;;15.88;9.93;;;11.10;99.90;;;;;;4974768;28;20458;-75
2023/06/05 03:08:06;;;;;;;17.30;8.98;;;11.10;99.90;;;;;;4973955;28;20055;-75
2023/06/05 03:10:32;;;;;;;17.88;9.90;;;11.10;99.90;;;;;;4974628;28;20034;-73
2023/06/05 03:12:58;;;;;;;16.15;9.20;;;11.00;99.90;;;;;;4976013;28;20089;-75
2023/06/05 03:15:24;;;;;;;15.43;8.63;;;11.00;99.90;;;;;;4975348;28;20042;-75
2023/06/05 03:17:49;;;;;;;15.10;8.57;;;11.00;99.90;;;;;;4974532;28;20053;-73
2023/06/05 03:20:18;;;;;;;16.77;10.27;;;10.90;99.90;;;;;;4976076;28;20034;-73
2023/06/05 03:22:43;;;;;;;17.40;9.20;;;11.00;99.90;;;;;;4975790;28;20043;-73
2023/06/05 03:25:09;;;;;;;13.75;8.68;;;11.00;99.90;;;;;;4974134;28;20126;-76
2023/06/05 03:27:35;;;;;;;15.23;9.68;;;11.00;99.90;;;;;;4974354;28;20047;-74
2023/06/05 03:30:01;;;;;;;15.75;9.98;;;11.10;99.90;;;;;;4974347;28;20042;-75
2023/06/05 03:32:27;;;;;;;16.48;9.55;;;11.00;99.90;;;;;;4975164;28;20104;-73
2023/06/05 03:34:53;;;;;;;19.08;10.07;;;11.10;99.90;;;;;;4974028;28;20047;-75
2023/06/05 03:37:18;;;;;;;18.83;9.65;;;11.10;99.90;;;;;;4974973;28;20565;-75
2023/06/05 03:39:44;;;;;;;17.75;10.25;;;11.10;99.90;;;;;;4972680;28;20047;-74
2023/06/05 03:42:11;;;;;;;17.05;10.10;;;11.10;99.90;;;;;;4974663;28;20039;-74
2023/06/05 03:44:37;;;;;;;15.50;9.95;;;11.10;99.90;;;;;;4973673;28;20490;-73
2023/06/05 03:47:03;;;;;;;17.50;10.25;;;11.10;99.90;;;;;;4973175;28;20050;-73
2023/06/05 03:49:29;;;;;;;16.73;9.70;;;11.10;99.90;;;;;;4974659;28;20126;-75
2023/06/05 03:52:00;;;;;;;16.77;9.63;;;11.20;99.90;;;;;;4974955;28;20473;-75
2023/06/05 03:54:32;;;;;;;20.42;9.95;;;11.20;99.90;;;;;;4973908;28;20085;-76
2023/06/05 03:57:00;;;;;;;20.90;10.23;;;11.20;99.90;;;;;;4974264;28;20039;-77
2023/06/05 03:59:28;;;;;;;18.77;10.00;;;11.20;99.90;;;;;;4975057;28;20393;-73
2023/06/05 04:01:55;;;;;;;18.40;9.93;;;11.30;99.90;;;;;;4957814;28;20092;-73
2023/06/05 04:04:20;;;;;;;18.42;10.25;;;11.30;99.90;;;;;;4973772;28;20118;-74
2023/06/05 04:06:46;;;;;;;15.70;9.23;;;11.30;99.90;;;;;;4975390;28;20170;-76
2023/06/05 04:09:12;;;;;;;19.00;11.07;;;11.30;99.90;;;;;;4973755;28;20054;-74
2023/06/05 04:11:43;;;;;;;19.67;10.65;;;11.40;99.90;;;;;;4973522;28;20051;-75
2023/06/05 04:14:10;;;;;;;15.23;9.77;;;11.40;99.90;;;;;;4973555;28;20050;-73
2023/06/05 04:16:42;;;;;;;17.80;10.38;;;11.40;99.90;;;;;;4973043;28;20080;-74
2023/06/05 04:19:12;;;;;;;15.63;9.70;;;11.50;99.90;;;;;;4973043;28;20050;-73
2023/06/05 04:21:38;;;;;;;18.83;10.95;;;11.50;99.90;;;;;;4973358;28;20502;-76
2023/06/05 04:24:06;;;;;;;16.02;10.40;;;11.60;99.90;;;;;;4974903;28;20039;-74
2023/06/05 04:26:33;;;;;;;18.73;10.27;;;11.60;99.90;;;;;;4974597;28;20070;-73
2023/06/05 04:29:01;;;;;;;14.73;9.95;;;11.60;99.90;;;;;;4973392;28;20043;-74
2023/06/05 04:31:29;;;;;;;20.95;9.77;;;11.60;99.90;;;;;;4974689;28;20047;-74
2023/06/05 04:33:56;;;;;;;16.75;10.38;;;11.60;99.90;;;;;;4973033;28;20050;-73
2023/06/05 04:36:22;;;;;;;17.35;9.77;;;11.70;99.90;;;;;;4974387;28;20054;-73
2023/06/05 04:38:48;;;;;;;17.48;10.38;;;11.70;99.90;;;;;;4972494;28;20050;-74
2023/06/05 04:41:13;;;;;;;16.95;10.48;;;11.70;99.90;;;;;;4957099;28;20101;-75
2023/06/05 04:43:40;;;;;;;20.05;10.15;;;11.80;99.90;;;;;;4974653;28;20043;-75
2023/06/05 04:46:05;;;;;;;16.00;10.13;;;11.80;99.90;;;;;;4972886;28;20081;-71
2023/06/05 04:48:31;;;;;;;17.33;10.68;;;11.90;99.90;;;;;;4974413;28;20074;-74
2023/06/05 04:50:57;;;;;;;18.33;10.18;;;11.90;99.90;;;;;;4972863;28;20501;-73
2023/06/05 04:53:22;;;;;;;16.65;9.50;;;11.90;99.90;;;;;;4972951;28;20038;-75
2023/06/05 04:55:48;;;;;;;15.18;9.80;;;12.00;99.90;;;;;;4972843;28;20402;-73
2023/06/05 04:58:15;;;;;;;14.43;9.18;;;12.00;99.90;;;;;;4974222;28;20130;-72
2023/06/05 05:00:44;;;;;;;16.30;9.60;;;12.00;99.90;;;;;;4973277;28;20051;-75
2023/06/05 05:03:13;;;;;;;16.15;9.35;;;12.10;99.90;;;;;;4972935;28;20039;-74
2023/06/05 05:05:39;;;;;;;16.27;9.27;;;12.10;99.90;;;;;;4974395;28;20043;-76
2023/06/05 05:08:05;;;;;;;14.13;9.35;;;12.20;99.90;;;;;;4974216;28;20160;-73
2023/06/05 05:10:31;;;;;;;14.27;8.73;;;12.20;99.90;;;;;;4972809;28;20074;-73
2023/06/05 05:13:03;;;;;;;13.52;8.32;;;12.20;99.90;;;;;;4973245;28;20106;-76
2023/06/05 05:15:29;;;;;;;12.15;7.68;;;12.20;99.90;;;;;;4974032;28;20051;-73
2023/06/05 05:17:56;;;;;;;12.32;7.60;;;12.30;99.90;;;;;;4956867;28;20047;-74
2023/06/05 05:20:22;;;;;;;12.65;7.60;;;12.30;99.90;;;;;;4974274;28;20078;-75
2023/06/05 05:22:48;;;;;;;12.27;8.02;;;12.40;99.90;;;;;;4972927;28;20097;-73
2023/06/05 05:25:14;;;;;;;15.90;8.40;;;12.40;99.90;;;;;;4956937;28;20127;-74
2023/06/05 05:27:39;;;;;;;13.10;7.78;;;12.40;99.90;;;;;;4956748;28;20039;-73
2023/06/05 05:30:07;;;;;;;16.02;8.23;;;12.50;99.90;;;;;;4972886;28;20047;-74
2023/06/05 05:32:32;;;;;;;12.27;7.72;;;12.50;99.90;;;;;;4972523;28;20402;-73
2023/06/05 05:34:58;;;;;;;12.63;7.53;;;12.50;99.90;;;;;;4972578;28;20046;-72
2023/06/05 05:37:25;;;;;;;10.50;6.40;;;12.60;99.90;;;;;;4974132;28;20057;-73
2023/06/05 05:39:51;;;;;;;9.43;6.05;;;12.60;99.90;;;;;;4975667;28;20095;-76
2023/06/05 05:42:17;;;;;;;9.70;6.30;;;12.60;99.90;;;;;;4976229;28;20375;-74
2023/06/05 05:44:43;;;;;;;10.73;6.88;;;12.60;99.90;;;;;;4976486;28;20045;-76
2023/06/05 05:47:10;;;;;;;11.55;6.25;;;12.60;99.90;;;;;;4976115;28;20121;-75
2023/06/05 05:49:36;;;;;;;9.80;5.70;;;12.60;99.90;;;;;;4976132;28;20398;-74
2023/06/05 05:52:02;;;;;;;9.20;5.80;;;12.70;99.90;;;;;;4975541;28;20047;-74
2023/06/05 05:54:27;;;;;;;7.70;5.03;;;12.70;99.90;;;;;;4977367;28;20045;-75
2023/06/05 05:56:56;;;;;;;6.68;4.78;;;12.70;99.90;;;;;;4976330;28;20043;-73
2023/06/05 05:59:22;;;;;;;6.55;4.38;;;12.70;99.90;;;;;;4959840;28;20051;-72
2023/06/05 06:01:51;;;;;;;6.50;3.80;;;12.70;99.90;;;;;;4975575;28;20038;-73
2023/06/05 06:04:17;;;;;;;8.13;3.90;;;12.80;99.90;;;;;;4978079;28;20339;-73
2023/06/05 06:06:44;;;;;;;8.30;4.13;;;12.80;99.90;;;;;;4975832;28;20648;-75
2023/06/05 06:09:09;;;;;;;8.35;4.15;;;12.80;99.90;;;;;;4975476;28;20051;-73
2023/06/05 06:11:38;;;;;;;4.78;3.58;;;12.80;99.90;;;;;;4976847;28;20069;-73
2023/06/05 06:14:04;;;;;;;5.75;3.70;;;12.80;99.90;;;;;;4975617;28;20082;-74
2023/06/05 06:16:29;;;;;;;6.20;3.72;;;12.80;99.90;;;;;;4975589;28;20074;-75
2023/06/05 06:18:55;;;;;;;6.22;3.53;;;12.90;99.90;;;;;;4976851;28;20476;-75
2023/06/05 06:21:21;;;;;;;5.55;3.70;;;12.90;99.90;;;;;;4975535;28;20043;-74
2023/06/05 06:23:47;;;;;;;6.40;3.63;;;12.90;99.90;;;;;;4975780;28;20043;-73
2023/06/05 06:26:15;;;;;;;7.25;4.03;;;12.80;99.90;;;;;;4975262;28;20082;-74
2023/06/05 06:28:41;;;;;;;5.30;3.65;;;12.80;99.90;;;;;;4975654;28;20093;-75
2023/06/05 06:31:07;;;;;;;9.93;4.43;;;12.80;99.90;;;;;;4975277;28;20047;-74
2023/06/05 06:33:32;;;;;;;6.43;3.72;;;12.80;99.90;;;;;;4976520;28;20038;-73
2023/06/05 06:35:58;;;;;;;5.90;4.05;;;12.80;99.90;;;;;;4975326;28;20174;-72
2023/06/05 06:38:30;;;;;;;6.03;3.72;;;12.80;99.90;;;;;;4975493;28;20047;-75
2023/06/05 06:40:57;;;;;;;7.10;3.63;;;12.80;99.90;;;;;;4975208;28;20079;-74
2023/06/05 06:43:23;;;;;;;5.88;3.40;;;12.90;99.90;;;;;;4975098;28;20047;-75
2023/06/05 06:45:50;;;;;;;6.10;3.72;;;12.90;99.90;;;;;;4976688;28;20042;-73
2023/06/05 06:48:19;;;;;;;7.45;3.67;;;13.00;99.90;;;;;;4975327;28;20051;-73
2023/06/05 06:50:46;;;;;;;8.38;3.65;;;13.10;99.90;;;;;;4975347;28;20047;-74
2023/06/05 06:53:11;;;;;;;7.53;3.78;;;13.20;99.90;;;;;;4974873;28;20046;-73
2023/06/05 06:55:37;;;;;;;7.43;3.35;;;13.30;99.90;;;;;;4975101;28;20107;-74
2023/06/05 06:58:04;;;;;;;6.80;3.45;;;13.30;99.90;;;;;;4974749;28;20565;-73
2023/06/05 07:00:30;;;;;;;5.40;3.30;;;13.40;99.90;;;;;;4974458;28;20512;-75
2023/06/05 07:02:56;;;;;;;5.65;3.17;;;13.50;99.90;;;;;;4974721;28;20043;-72
2023/06/05 07:05:22;;;;;;;6.10;3.42;;;13.50;99.90;;;;;;4974825;28;20043;-73
2023/06/05 07:07:48;;;;;;;7.45;3.55;;;13.60;99.90;;;;;;4974623;28;20049;-75
2023/06/05 07:10:14;;;;;;;6.93;3.35;;;13.50;99.90;;;;;;4975892;28;20129;-74
2023/06/05 07:12:39;;;;;;;5.78;3.00;;;13.60;99.90;;;;;;4976174;28;20058;-72
2023/06/05 07:15:06;;;;;;;5.25;3.00;;;13.60;99.90;;;;;;4975021;28;20394;-72
2023/06/05 07:17:32;;;;;;;4.40;2.85;;;13.60;99.90;;;;;;4974378;28;20123;-74
2023/06/05 07:19:57;;;;;;;8.05;3.40;;;13.60;99.90;;;;;;4976105;28;20494;-73
2023/06/05 07:22:24;;;;;;;4.85;2.63;;;13.60;99.90;;;;;;4975608;28;20046;-73
2023/06/05 07:24:50;;;;;;;4.85;2.70;;;13.60;99.90;;;;;;4976007;28;20046;-72
2023/06/05 07:27:16;;;;;;;4.97;2.90;;;13.60;99.90;;;;;;4975568;28;20035;-74
2023/06/05 07:29:42;;;;;;;5.57;2.78;;;13.70;99.90;;;;;;4974503;28;20051;-72
2023/06/05 07:32:08;;;;;;;4.50;2.70;;;13.80;99.90;;;;;;4974199;28;20484;-73
2023/06/05 07:34:37;;;;;;;4.82;2.80;;;13.80;99.90;;;;;;4974043;28;20141;-73
2023/06/05 07:37:02;;;;;;;3.67;2.47;;;13.90;99.90;;;;;;4975419;28;20396;-71
2023/06/05 07:39:28;;;;;;;4.88;2.40;;;13.90;99.90;;;;;;4973453;28;20050;-72
2023/06/05 07:41:54;;;;;;;3.53;2.60;;;13.90;99.90;;;;;;4975635;28;20047;-73
2023/06/05 07:44:23;;;;;;;3.53;2.25;;;14.00;99.90;;;;;;4975382;28;20039;-73
2023/06/05 07:46:50;;;;;;;4.18;2.65;;;14.10;99.90;;;;;;4974142;28;20039;-73
2023/06/05 07:49:16;;;;;;;3.78;2.60;;;14.10;99.90;;;;;;4958093;28;20083;-72
2023/06/05 07:51:43;;;;;;;4.93;2.85;;;14.20;99.90;;;;;;4974237;28;20156;-74
2023/06/05 07:54:15;;;;;;;4.28;2.75;;;14.20;99.90;;;;;;4974051;28;20057;-75
2023/06/05 07:56:41;;;;;;;6.47;2.70;;;14.30;99.90;;;;;;4975094;28;20039;-73
2023/06/05 07:59:08;;;;;;;4.70;2.70;;;14.40;99.90;;;;;;4975423;28;20047;-72
2023/06/05 08:01:36;;;;;;;4.40;2.60;;;14.40;99.90;;;;;;4973126;28;20043;-74
2023/06/05 08:04:03;;;;;;;4.95;3.03;;;14.50;99.90;;;;;;4974001;28;20043;-75
2023/06/05 08:06:29;;;;;;;5.60;2.85;;;14.50;99.90;;;;;;4975030;28;20398;-73
2023/06/05 08:08:55;;;;;;;5.70;3.30;;;14.60;99.90;;;;;;4975315;28;20089;-72
2023/06/05 08:11:21;;;;;;;5.32;2.97;;;14.70;99.90;;;;;;4974828;28;20070;-74
2023/06/05 08:13:47;;;;;;;4.97;3.08;;;14.90;99.90;;;;;;4973795;28;20097;-76
2023/06/05 08:16:15;;;;;;;6.40;3.53;;;14.90;99.90;;;;;;4973629;28;20038;-72
2023/06/05 08:18:41;;;;;;;5.10;3.20;;;15.00;99.90;;;;;;4975074;28;20057;-74
2023/06/05 08:21:06;;;;;;;6.82;3.20;;;15.10;99.90;;;;;;4974975;28;20038;-75
2023/06/05 08:23:32;;;;;;;6.15;3.08;;;15.20;99.90;;;;;;4973747;28;20092;-75
2023/06/05 08:25:58;;;;;;;5.18;3.20;;;15.20;99.90;;;;;;4973657;28;20138;-72
2023/06/05 08:28:24;;;;;;;5.30;3.15;;;15.30;99.90;;;;;;4973149;28;20528;-73
2023/06/05 08:30:51;;;;;;;7.55;3.70;;;15.40;99.90;;;;;;4973274;28;20053;-72
2023/06/05 08:33:18;;;;;;;8.68;3.22;;;15.40;99.90;;;;;;4974511;28;20050;-73
2023/06/05 08:35:44;;;;;;;5.50;3.10;;;15.60;99.90;;;;;;4976548;28;20082;-72
2023/06/05 08:38:09;;;;;;;6.78;3.30;;;15.70;99.90;;;;;;4975508;28;20101;-73
2023/06/05 08:40:36;;;;;;;4.28;3.00;;;15.80;99.90;;;;;;4957999;28;20486;-73
2023/06/05 08:43:03;;;;;;;7.38;3.40;;;15.80;99.90;;;;;;4973386;28;20142;-72
2023/06/05 08:45:30;;;;;;;6.22;3.00;;;15.90;99.90;;;;;;4973381;28;20125;-73
2023/06/05 08:48:00;;;;;;;8.27;3.90;;;16.00;99.90;;;;;;4975041;28;20035;-74
2023/06/05 08:50:29;;;;;;;4.82;3.17;;;16.10;99.90;;;;;;4974985;28;20111;-73
2023/06/05 08:52:58;;;;;;;6.68;3.83;;;16.20;99.90;;;;;;4974700;28;20121;-74
2023/06/05 08:55:25;;;;;;;5.40;2.97;;;16.30;99.90;;;;;;4974507;28;20043;-73
2023/06/05 08:57:52;;;;;;;6.28;3.50;;;16.40;99.90;;;;;;4973294;28;20390;-73
2023/06/05 09:00:18;;;;;;;6.18;3.40;;;16.50;99.90;;;;;;4972582;28;20047;-73
2023/06/05 09:02:46;;;;;;;5.30;3.30;;;16.70;99.90;;;;;;4972872;28;20116;-74
2023/06/05 09:05:12;;;;;;;6.00;3.83;;;16.80;99.90;;;;;;4973103;28;20049;-73
2023/06/05 09:07:38;;;;;;;6.47;3.53;;;16.90;99.90;;;;;;4973079;28;20074;-72
2023/06/05 09:10:05;;;;;;;7.47;3.85;;;17.10;99.90;;;;;;4974166;28;20462;-73
2023/06/05 09:12:31;;;;;;;6.93;3.60;;;17.20;99.90;;;;;;4972872;28;20422;-74
2023/06/05 09:14:56;;;;;;;6.25;3.20;;;17.20;99.90;;;;;;4976204;28;20046;-72
2023/06/05 09:17:22;;;;;;;6.95;3.25;;;17.30;99.90;;;;;;4977775;28;20074;-74
2023/06/05 09:19:50;;;;;;;4.97;3.28;;;17.40;99.90;;;;;;4976556;28;20117;-73
2023/06/05 09:22:16;;;;;;;6.10;3.60;;;17.50;99.90;;;;;;4976411;28;20093;-73
2023/06/05 09:24:43;;;;;;;6.97;3.80;;;17.70;99.90;;;;;;4977761;28;20062;-72
2023/06/05 09:27:10;;;;;;;5.28;3.75;;;17.70;99.90;;;;;;4977762;28;20398;-74
2023/06/05 09:29:43;;;;;;;4.80;3.40;;;17.80;99.90;;;;;;4976717;28;20047;-76
2023/06/05 09:32:20;;;;;;;5.15;3.25;;;17.80;99.90;;;;;;4977658;28;20049;-73
2023/06/05 09:34:59;;;;;;;5.18;3.80;;;17.90;99.90;;;;;;4976333;28;20057;-74
2023/06/05 09:37:35;;;;;;;7.32;3.70;;;18.00;99.90;;;;;;4976401;28;20046;-74
2023/06/05 09:40:02;;;;;;;5.53;3.38;;;18.00;99.90;;;;;;4977529;28;20050;-73
2023/06/05 09:42:35;;;;;;;6.50;3.70;;;18.00;99.90;;;;;;4960057;28;20483;-74
2023/06/05 09:45:01;;;;;;;5.32;3.47;;;18.10;99.90;;;;;;4976551;28;20043;-73
2023/06/05 09:47:27;;;;;;;5.07;3.30;;;18.20;99.90;;;;;;4977680;28;20039;-73
2023/06/05 09:49:53;;;;;;;4.97;3.47;;;18.20;99.90;;;;;;4976416;28;20077;-75
2023/06/05 09:52:19;;;;;;;6.55;3.35;;;18.30;99.90;;;;;;4977381;28;20034;-74
2023/06/05 09:54:46;;;;;;;4.72;3.17;;;18.30;99.90;;;;;;4977505;28;20371;-74
2023/06/05 09:57:13;;;;;;;5.65;3.38;;;18.50;99.90;;;;;;4975994;28;20046;-74
2023/06/05 09:59:51;;;;;;;7.22;3.90;;;18.60;99.90;;;;;;4977189;28;20057;-74
2023/06/05 10:02:18;;;;;;;5.20;3.40;;;18.80;99.90;;;;;;4959544;28;20509;-72
2023/06/05 10:05:03;;;;;;;7.00;4.55;;;18.90;99.90;;;;;;4977103;28;20042;-73
2023/06/05 10:07:31;;;;;;;8.00;4.05;;;19.10;99.90;;;;;;4975858;28;20122;-74
2023/06/05 10:09:57;;;;;;;5.25;3.88;;;19.10;99.90;;;;;;4977240;28;20046;-75
2023/06/05 10:12:27;;;;;;;6.93;3.72;;;19.20;99.90;;;;;;4977004;28;20039;-73
2023/06/05 10:14:55;;;;;;;4.65;3.40;;;19.30;99.90;;;;;;4976985;28;20047;-73
2023/06/05 10:17:21;;;;;;;5.68;3.63;;;19.50;99.90;;;;;;4977332;28;20097;-74
2023/06/05 10:19:47;;;;;;;5.70;3.13;;;19.50;99.90;;;;;;4975600;28;20046;-75
2023/06/05 10:22:13;;;;;;;5.45;3.25;;;19.60;99.90;;;;;;4959447;28;20039;-75
2023/06/05 10:24:48;;;;;;;6.30;3.60;;;19.40;99.90;;;;;;4976523;28;20042;-75
2023/06/05 10:27:36;;;;;;;7.18;3.33;;;19.50;99.90;;;;;;4976543;28;20046;-75
2023/06/05 10:30:32;;;;;;;9.85;3.50;;;19.60;99.90;;;;;;4977160;28;20053;-74
2023/06/05 10:33:05;;;;;;;5.28;3.30;;;19.70;99.90;;;;;;4977110;28;20070;-72
2023/06/05 10:35:51;;;;;;;5.70;3.90;;;19.80;99.90;;;;;;4975547;28;20057;-75
2023/06/05 10:38:27;;;;;;;6.75;3.95;;;20.00;99.90;;;;;;4975357;28;20494;-75
2023/06/05 10:40:56;;;;;;;6.82;3.50;;;20.00;99.90;;;;;;4975154;28;20054;-75
2023/06/05 10:43:47;;;;;;;8.27;3.67;;;20.10;99.90;;;;;;4976728;28;20038;-76
2023/06/05 10:46:32;;;;;;;5.30;3.90;;;20.20;99.90;;;;;;4974845;28;20475;-75
2023/06/05 10:49:07;;;;;;;7.53;3.47;;;20.30;99.90;;;;;;4976617;28;20058;-77
2023/06/05 10:51:51;;;;;;;5.97;3.83;;;20.20;99.90;;;;;;4974063;28;20051;-75
2023/06/05 10:54:23;;;;;;;6.40;4.25;;;20.30;99.90;;;;;;4975577;28;20047;-75
2023/06/05 10:56:52;;;;;;;5.47;3.65;;;20.40;99.90;;;;;;4976469;28;20049;-76
2023/06/05 10:59:22;;;;;;;7.32;3.90;;;20.40;99.90;;;;;;4976195;28;20043;-76
2023/06/05 11:02:19;;;;;;;5.72;3.78;;;20.40;99.90;;;;;;4975937;28;20043;-75
2023/06/05 11:04:47;;;;;;;5.43;3.00;;;20.50;99.90;;;;;;4974151;28;20051;-75
2023/06/05 11:07:29;;;;;;;5.93;3.28;;;20.70;99.90;;;;;;4976230;28;20049;-76
2023/06/05 11:10:07;;;;;;;6.00;3.20;;;20.80;99.90;;;;;;4976243;28;20097;-75
2023/06/05 11:12:38;;;;;;;6.68;4.18;;;21.00;99.90;;;;;;4957570;28;20367;-74
2023/06/05 11:15:11;;;;;;;8.43;3.47;;;21.10;99.90;;;;;;4974530;28;20058;-76
2023/06/05 11:17:44;;;;;;;4.57;3.30;;;21.10;99.90;;;;;;4976050;28;20053;-76
2023/06/05 11:20:25;;;;;;;4.85;3.10;;;21.20;99.90;;;;;;4974452;28;20051;-75
2023/06/05 11:22:53;;;;;;;5.82;3.33;;;21.40;99.90;;;;;;4974506;28;20042;-75
2023/06/05 11:25:24;;;;;;;5.97;3.25;;;21.50;99.90;;;;;;4975779;28;20035;-75
2023/06/05 11:27:58;;;;;;;5.32;2.80;;;21.60;99.90;;;;;;4975766;28;20053;-75
2023/06/05 11:30:28;;;;;;;4.43;2.90;;;21.60;99.90;;;;;;4974270;28;20055;-76
2023/06/05 11:32:58;;;;;;;5.30;3.60;;;21.70;99.90;;;;;;4973161;28;20294;-74
2023/06/05 11:35:29;;;;;;;6.38;3.42;;;21.80;99.90;;;;;;4974076;28;20494;-75
2023/06/05 11:38:15;;;;;;;8.20;3.22;;;21.80;99.90;;;;;;4974089;28;20043;-75
2023/06/05 11:40:42;;;;;;;5.30;3.15;;;21.80;99.90;;;;;;4974176;28;20083;-74
2023/06/05 11:43:09;;;;;;;4.72;3.08;;;21.70;99.90;;;;;;4975836;28;20053;-75
2023/06/05 11:45:37;;;;;;;5.68;3.22;;;21.90;99.90;;;;;;4975519;28;20038;-76
2023/06/05 11:48:13;;;;;;;6.15;3.33;;;21.90;99.90;;;;;;4975752;28;20109;-75
2023/06/05 11:50:59;;;;;;;4.35;2.78;;;21.80;99.90;;;;;;4974719;28;20062;-76
2023/06/05 11:53:26;;;;;;;7.40;2.78;;;21.90;99.90;;;;;;4975152;28;20049;-76
2023/06/05 11:56:05;;;;;;;6.22;3.22;;;22.10;99.90;;;;;;4975207;28;20113;-77
2023/06/05 11:58:35;;;;;;;5.18;3.17;;;22.10;99.90;;;;;;4974161;28;20047;-75
2023/06/05 12:01:06;;;;;;;5.40;3.28;;;22.20;99.90;;;;;;4973671;28;20105;-75
2023/06/05 12:03:33;;;;;;;4.93;2.97;;;22.30;99.90;;;;;;4973574;28;20050;-76
2023/06/05 12:06:02;;;;;;;7.00;3.00;;;22.50;99.90;;;;;;4973499;28;20043;-74
2023/06/05 12:08:32;;;;;;;8.25;3.05;;;22.60;99.90;;;;;;4974136;28;20436;-75
2023/06/05 12:11:22;;;;;;;4.88;3.50;;;22.70;99.90;;;;;;4973536;28;20058;-76
2023/06/05 12:13:57;;;;;;;5.22;3.38;;;22.70;99.90;;;;;;4968477;28;20054;-75
2023/06/05 12:16:31;;;;;;;4.53;3.10;;;22.70;99.90;;;;;;4973525;28;20494;-76
2023/06/05 12:18:57;;;;;;;5.72;3.63;;;22.70;99.90;;;;;;4973244;28;20187;-76
2023/06/05 12:21:26;;;;;;;4.63;3.30;;;22.70;99.90;;;;;;4975226;28;20129;-77
2023/06/05 12:24:00;;;;;;;4.47;3.20;;;22.70;99.90;;;;;;4973824;28;20121;-76
2023/06/05 12:26:26;;;;;;;5.22;3.00;;;22.70;99.90;;;;;;4975073;28;20042;-75
2023/06/05 12:29:03;;;;;;;5.43;3.40;;;22.60;99.90;;;;;;4973296;28;20043;-76
2023/06/05 12:31:36;;;;;;;5.35;3.53;;;22.70;99.90;;;;;;4973240;28;20047;-76
2023/06/05 12:34:03;;;;;;;4.65;3.35;;;22.70;99.90;;;;;;4974764;28;20104;-76
2023/06/05 12:36:31;;;;;;;5.07;3.03;;;22.90;99.90;;;;;;4974864;28;20046;-75
2023/06/05 12:39:03;;;;;;;10.02;2.97;;;23.00;99.90;;;;;;4957183;28;20055;-75
2023/06/05 12:41:29;;;;;;;4.78;3.03;;;23.00;99.90;;;;;;4973226;28;20121;-76
2023/06/05 12:44:04;;;;;;;7.00;2.85;;;23.00;99.90;;;;;;4973227;28;20205;-76
2023/06/05 12:46:30;;;;;;;7.25;3.40;;;23.10;99.90;;;;;;4974750;28;20043;-76
2023/06/05 12:48:57;;;;;;;6.60;3.17;;;23.20;99.90;;;;;;4973507;28;20047;-75
2023/06/05 12:51:26;;;;;;;6.80;2.97;;;23.40;99.90;;;;;;4974425;28;20074;-76
2023/06/05 12:53:52;;;;;;;6.53;3.22;;;23.40;99.90;;;;;;4974729;28;20047;-75
2023/06/05 12:56:18;;;;;;;4.28;2.75;;;23.40;99.90;;;;;;4974696;28;20078;-77
2023/06/05 12:58:44;;;;;;;5.95;3.20;;;23.50;99.90;;;;;;4974813;28;20158;-76
2023/06/05 13:01:10;;;;;;;4.68;3.25;;;23.60;99.90;;;;;;4974303;28;20039;-76
2023/06/05 13:03:36;;;;;;;6.35;2.50;;;23.60;99.90;;;;;;4973199;28;20097;-76
2023/06/05 13:06:02;;;;;;;6.00;3.22;;;23.70;99.90;;;;;;4974554;28;20438;-76
2023/06/05 13:08:27;;;;;;;6.43;3.30;;;23.70;99.90;;;;;;4973639;28;20506;-75
2023/06/05 13:10:53;;;;;;;4.88;2.80;;;23.70;99.90;;;;;;4974427;28;20487;-77
2023/06/05 13:13:19;;;;;;;6.05;3.00;;;23.70;99.90;;;;;;4974518;28;20046;-77
2023/06/05 13:15:45;;;;;;;6.43;3.10;;;23.70;99.90;;;;;;4974815;28;20046;-75
2023/06/05 13:18:10;;;;;;;3.75;2.53;;;23.50;99.90;;;;;;4972886;28;20043;-77
2023/06/05 13:20:36;;;;;;;5.00;3.10;;;23.50;99.90;;;;;;4972747;28;20046;-76
2023/06/05 13:23:02;;;;;;;5.22;2.97;;;23.40;99.90;;;;;;4973573;28;20053;-77
2023/06/05 13:25:27;;;;;;;4.25;2.47;;;23.40;99.90;;;;;;4973616;28;20035;-77
2023/06/05 13:27:53;;;;;;;6.20;3.13;;;23.40;99.90;;;;;;4973617;28;20057;-75
2023/06/05 13:30:19;;;;;;;5.88;2.78;;;23.50;99.90;;;;;;4974326;28;20452;-75
2023/06/05 13:32:45;;;;;;;4.60;2.63;;;23.30;99.90;;;;;;4974121;28;20046;-75
2023/06/05 13:35:11;;;;;;;4.40;2.80;;;23.40;99.90;;;;;;4975778;28;20046;-75
2023/06/05 13:37:40;;;;;;;3.88;2.75;;;23.50;99.90;;;;;;4974540;28;20133;-76
2023/06/05 13:40:09;;;;;;;6.78;3.15;;;23.50;99.90;;;;;;4974004;28;20133;-75
2023/06/05 13:42:35;;;;;;;6.25;2.95;;;23.60;99.90;;;;;;4974090;28;20043;-75
2023/06/05 13:45:02;;;;;;;5.07;2.85;;;23.60;99.90;;;;;;4975630;28;20039;-76
2023/06/05 13:47:27;;;;;;;4.88;2.83;;;23.60;99.90;;;;;;4973927;28;20047;-75
2023/06/05 13:49:53;;;;;;;6.10;2.90;;;23.50;99.90;;;;;;4975039;28;20073;-76
2023/06/05 13:52:19;;;;;;;12.20;3.08;;;23.60;99.90;;;;;;4973801;28;20126;-76
2023/06/05 13:54:45;;;;;;;4.50;2.97;;;23.60;99.90;;;;;;4973994;28;20134;-75
2023/06/05 13:57:12;;;;;;;4.72;3.10;;;23.60;99.90;;;;;;4974801;28;20114;-75
2023/06/05 13:59:38;;;;;;;5.57;3.20;;;23.50;99.90;;;;;;4975031;28;20066;-76
2023/06/05 14:02:06;;;;;;;5.05;2.92;;;23.50;99.90;;;;;;4977062;28;20082;-76
2023/06/05 14:04:32;;;;;;;4.35;2.72;;;23.40;99.90;;;;;;4978415;28;20478;-75
2023/06/05 14:06:58;;;;;;;7.68;3.35;;;23.40;99.90;;;;;;4977104;28;20042;-74
2023/06/05 14:09:24;;;;;;;4.97;2.60;;;23.30;99.90;;;;;;4976856;28;20039;-75
2023/06/05 14:11:50;;;;;;;4.30;2.70;;;23.30;99.90;;;;;;4978248;28;20367;-76
2023/06/05 14:14:16;;;;;;;5.85;3.20;;;23.40;99.90;;;;;;4978659;28;20139;-76
2023/06/05 14:16:41;;;;;;;5.85;2.90;;;23.50;99.90;;;;;;4978384;28;20398;-75
2023/06/05 14:19:07;;;;;;;4.40;3.20;;;23.60;99.90;;;;;;4977611;28;20043;-75
2023/06/05 14:21:33;;;;;;;4.40;3.22;;;23.50;99.90;;;;;;4976580;28;20478;-74
2023/06/05 14:23:58;;;;;;;5.43;3.17;;;23.30;99.90;;;;;;4976194;28;20034;-75
2023/06/05 14:26:25;;;;;;;7.93;2.90;;;23.30;99.90;;;;;;4976099;28;20129;-76
2023/06/05 14:28:51;;;;;;;4.78;2.83;;;23.30;99.90;;;;;;4977217;28;20129;-76
2023/06/05 14:31:16;;;;;;;6.18;3.05;;;23.30;99.90;;;;;;4977292;28;20038;-76
2023/06/05 14:33:42;;;;;;;5.40;3.00;;;23.30;99.90;;;;;;4975796;28;20101;-76
2023/06/05 14:36:08;;;;;;;5.05;3.33;;;23.30;99.90;;;;;;4975503;28;20051;-75
2023/06/05 14:38:34;;;;;;;6.97;3.38;;;23.40;99.90;;;;;;4977106;28;20129;-76
2023/06/05 14:41:00;;;;;;;6.13;3.40;;;23.50;99.90;;;;;;4975874;28;20121;-76
2023/06/05 14:43:26;;;;;;;5.47;2.97;;;23.40;99.90;;;;;;4976843;28;20562;-76
2023/06/05 14:45:52;;;;;;;5.55;3.25;;;23.50;99.90;;;;;;4975894;28;20115;-76
2023/06/05 14:48:17;;;;;;;4.63;3.20;;;23.40;99.90;;;;;;4975854;28;20146;-75
2023/06/05 14:50:44;;;;;;;5.65;3.40;;;23.30;99.90;;;;;;4976795;28;20513;-76
2023/06/05 14:53:10;;;;;;;5.70;3.17;;;23.20;99.90;;;;;;4976764;28;20061;-76
2023/06/05 14:55:36;;;;;;;7.63;3.72;;;23.20;99.90;;;;;;4975153;28;20487;-75
2023/06/05 14:58:02;;;;;;;5.55;3.72;;;23.20;99.90;;;;;;4974956;28;20062;-74
2023/06/05 15:00:29;;;;;;;7.95;3.50;;;23.20;99.90;;;;;;4974818;28;20051;-75
2023/06/05 15:02:55;;;;;;;5.45;3.65;;;23.20;99.90;;;;;;4975630;28;20055;-75
2023/06/05 15:05:21;;;;;;;5.70;3.13;;;23.30;99.90;;;;;;4976627;28;20043;-75
2023/06/05 15:07:46;;;;;;;5.25;3.30;;;23.30;99.90;;;;;;4975297;28;20050;-75
2023/06/05 15:10:14;;;;;;;5.35;3.95;;;23.40;99.90;;;;;;4975847;28;20039;-75
2023/06/05 15:12:39;;;;;;;5.13;3.58;;;23.40;99.90;;;;;;4975624;28;20046;-75
2023/06/05 15:15:07;;;;;;;5.47;3.63;;;23.30;99.90;;;;;;4976300;28;20050;-74
2023/06/05 15:17:33;;;;;;;5.30;3.72;;;23.30;99.90;;;;;;4958850;28;20043;-73
2023/06/05 15:19:59;;;;;;;5.43;3.88;;;23.40;99.90;;;;;;4976314;28;20046;-75
2023/06/05 15:22:24;;;;;;;6.40;4.00;;;23.40;99.90;;;;;;4975810;28;20436;-74
2023/06/05 15:24:50;;;;;;;6.90;4.22;;;23.30;99.90;;;;;;4976108;28;20081;-74
2023/06/05 15:27:16;;;;;;;5.63;4.20;;;23.40;99.90;;;;;;4975886;28;20045;-74
2023/06/05 15:29:41;;;;;;;11.13;4.60;;;23.40;99.90;;;;;;4974597;28;20050;-74
2023/06/05 15:32:07;;;;;;;5.72;3.85;;;23.40;99.90;;;;;;4974873;28;20047;-74
2023/06/05 15:34:32;;;;;;;7.05;4.22;;;23.30;99.90;;;;;;4974554;28;20043;-75
2023/06/05 15:36:58;;;;;;;8.15;4.90;;;23.30;99.90;;;;;;4975604;28;20074;-75
2023/06/05 15:39:24;;;;;;;6.03;4.50;;;23.20;99.90;;;;;;4975539;28;20458;-75
2023/06/05 15:41:50;;;;;;;10.70;5.07;;;23.10;99.90;;;;;;4975613;28;20035;-76
2023/06/05 15:44:16;;;;;;;7.50;4.63;;;23.00;99.90;;;;;;4974457;28;20049;-75
2023/06/05 15:46:42;;;;;;;8.43;5.80;;;22.90;99.90;;;;;;4974193;28;20173;-75